createdAt,value
2022-08-09T00:00:00.750Z,26.04
2022-08-09T00:02:32.157Z,26.11
2022-08-09T00:05:03.519Z,26.11
2022-08-09T00:07:45.764Z,26.01
2022-08-09T00:10:17.983Z,26.04
2022-08-09T00:12:51.727Z,26.06
2022-08-09T00:15:35.339Z,25.92
2022-08-09T00:18:11.310Z,25.97
2022-08-09T00:20:41.390Z,25.89
2022-08-09T00:23:55.459Z,25.99
2022-08-09T00:25:56.234Z,26.05
2022-08-09T00:28:26.457Z,26.10
2022-08-09T00:30:53.945Z,25.94
2022-08-09T00:33:20.387Z,26.01
2022-08-09T00:36:00.933Z,25.95
2022-08-09T00:38:27.987Z,26.03
2022-08-09T00:40:55.089Z,26.07
2022-08-09T00:44:10.445Z,26.03
2022-08-09T00:46:11.632Z,26.11
2022-08-09T00:48:56.314Z,26.10
2022-08-09T00:51:23.010Z,26.13
2022-08-09T00:53:52.683Z,26.08
2022-08-09T00:56:19.315Z,26.05
2022-08-09T00:58:49.151Z,26.05
2022-08-09T01:01:21.336Z,26.06
2022-08-09T01:04:00.701Z,26.18
2022-08-09T01:06:54.322Z,25.92
2022-08-09T01:09:36.878Z,26.16
2022-08-09T01:12:34.092Z,26.21
2022-08-09T01:15:16.823Z,26.20
2022-08-09T01:17:59.741Z,26.16
2022-08-09T01:20:52.156Z,26.20
2022-08-09T01:24:02.975Z,26.26
2022-08-09T01:26:56.516Z,26.20
2022-08-09T01:29:41.258Z,26.17
2022-08-09T01:32:31.645Z,26.02
2022-08-09T01:35:28.989Z,25.84
2022-08-09T01:38:07.961Z,26.06
2022-08-09T01:40:40.464Z,26.00
2022-08-09T01:43:07.173Z,25.83
2022-08-09T01:45:33.977Z,25.91
2022-08-09T01:48:02.266Z,25.75
2022-08-09T01:50:36.819Z,25.75
2022-08-09T01:53:19.401Z,25.94
2022-08-09T01:55:47.045Z,25.90
2022-08-09T01:58:14.084Z,25.89
2022-08-09T02:00:41.581Z,25.83
2022-08-09T02:03:13.826Z,25.79
2022-08-09T02:06:03.950Z,25.79
2022-08-09T02:08:39.492Z,25.85
2022-08-09T02:11:17.206Z,25.70
2022-08-09T02:13:44.232Z,25.73
2022-08-09T02:16:35.280Z,25.65
2022-08-09T02:19:20.332Z,25.94
2022-08-09T02:21:48.128Z,25.82
2022-08-09T02:24:26.453Z,25.79
2022-08-09T02:26:54.915Z,25.77
2022-08-09T02:29:27.287Z,25.79
2022-08-09T02:31:56.695Z,25.93
2022-08-09T02:34:40.873Z,25.77
2022-08-09T02:37:14.905Z,25.75
2022-08-09T02:39:54.976Z,25.82
2022-08-09T02:42:41.225Z,25.92
2022-08-09T02:45:16.601Z,25.89
2022-08-09T02:47:46.332Z,25.71
2022-08-09T02:50:29.680Z,25.73
2022-08-09T02:53:09.586Z,25.69
2022-08-09T02:55:53.737Z,25.69
2022-08-09T02:58:35.846Z,25.70
2022-08-09T03:01:06.380Z,25.76
2022-08-09T03:03:37.190Z,25.73
2022-08-09T03:06:21.818Z,25.74
2022-08-09T03:08:48.466Z,25.60
2022-08-09T03:12:04.329Z,25.60
2022-08-09T03:14:03.672Z,25.48
2022-08-09T03:16:30.420Z,25.48
2022-08-09T03:18:57.026Z,25.57
2022-08-09T03:21:28.388Z,25.45
2022-08-09T03:24:05.141Z,25.49
2022-08-09T03:26:32.234Z,25.37
2022-08-09T03:28:59.343Z,25.40
2022-08-09T03:31:26.973Z,25.38
2022-08-09T03:33:54.822Z,25.40
2022-08-09T03:36:27.373Z,25.49
2022-08-09T03:38:54.739Z,25.41
2022-08-09T03:41:30.272Z,25.49
2022-08-09T03:44:09.805Z,25.47
2022-08-09T03:46:39.113Z,25.39
2022-08-09T03:49:08.695Z,25.39
2022-08-09T03:51:57.326Z,25.36
2022-08-09T03:54:28.939Z,25.33
2022-08-09T03:56:57.982Z,25.36
2022-08-09T03:59:43.301Z,25.35
2022-08-09T04:02:11.581Z,25.40
2022-08-09T04:04:41.373Z,25.35
2022-08-09T04:07:13.045Z,25.36
2022-08-09T04:09:48.355Z,25.37
2022-08-09T04:12:44.698Z,25.44
2022-08-09T04:15:29.553Z,25.47
2022-08-09T04:17:58.467Z,25.46
2022-08-09T04:20:24.943Z,25.53
2022-08-09T04:22:52.569Z,25.50
2022-08-09T04:25:19.320Z,25.51
2022-08-09T04:27:49.150Z,25.60
2022-08-09T04:30:17.654Z,25.66
2022-08-09T04:32:47.675Z,25.76
2022-08-09T04:35:14.410Z,25.78
2022-08-09T04:37:46.338Z,25.81
2022-08-09T04:40:28.625Z,25.89
2022-08-09T04:43:00.826Z,25.99
2022-08-09T04:45:30.324Z,25.90
2022-08-09T04:48:01.941Z,25.97
2022-08-09T04:50:31.924Z,26.15
2022-08-09T04:53:13.241Z,26.16
2022-08-09T04:55:57.498Z,26.29
2022-08-09T04:58:25.655Z,26.30
2022-08-09T05:00:52.740Z,26.39
2022-08-09T05:03:40.549Z,26.43
2022-08-09T05:06:08.265Z,26.51
2022-08-09T05:08:35.119Z,26.63
2022-08-09T05:11:02.407Z,26.69
2022-08-09T05:13:29.329Z,26.85
2022-08-09T05:15:59.942Z,26.91
2022-08-09T05:18:38.483Z,26.97
2022-08-09T05:21:22.868Z,27.04
2022-08-09T05:24:00.125Z,27.12
2022-08-09T05:26:36.990Z,27.19
2022-08-09T05:29:07.743Z,27.01
2022-08-09T05:31:49.272Z,27.27
2022-08-09T05:34:23.112Z,27.21
2022-08-09T05:36:57.308Z,27.34
2022-08-09T05:39:29.640Z,27.75
2022-08-09T05:42:04.811Z,27.82
2022-08-09T05:44:34.587Z,27.80
2022-08-09T05:47:05.635Z,28.07
2022-08-09T05:50:25.732Z,28.34
2022-08-09T05:52:19.954Z,28.37
2022-08-09T05:54:46.609Z,28.69
2022-08-09T05:57:17.469Z,28.74
2022-08-09T05:59:45.934Z,28.90
2022-08-09T06:02:16.986Z,29.30
2022-08-09T06:04:46.161Z,28.96
2022-08-09T06:07:21.543Z,29.16
2022-08-09T06:10:01.927Z,29.04
2022-08-09T06:12:30.085Z,29.27
2022-08-09T06:15:00.893Z,29.56
2022-08-09T06:17:27.821Z,29.92
2022-08-09T06:20:07.074Z,30.19
2022-08-09T06:22:34.716Z,30.35
2022-08-09T06:25:01.553Z,30.50
2022-08-09T06:27:43.104Z,30.72
2022-08-09T06:30:16.171Z,30.62
2022-08-09T06:33:00.825Z,30.95
2022-08-09T06:35:55.715Z,30.96
2022-08-09T06:38:17.586Z,30.95
2022-08-09T06:40:46.074Z,31.43
2022-08-09T06:43:14.172Z,32.07
2022-08-09T06:46:04.934Z,32.41
2022-08-09T06:48:31.043Z,32.71
2022-08-09T06:50:59.029Z,32.86
2022-08-09T06:53:26.024Z,32.61
2022-08-09T06:55:53.260Z,32.69
2022-08-09T06:58:40.874Z,33.17
2022-08-09T07:01:07.856Z,33.01
2022-08-09T07:03:39.754Z,34.18
2022-08-09T07:06:19.959Z,34.55
2022-08-09T07:08:46.903Z,34.70
2022-08-09T07:11:23.588Z,35.52
2022-08-09T07:14:04.562Z,35.86
2022-08-09T07:16:41.909Z,36.29
2022-08-09T07:19:15.515Z,37.46
2022-08-09T07:21:55.358Z,37.05
2022-08-09T07:24:31.948Z,37.39
2022-08-09T07:27:00.294Z,37.23
2022-08-09T07:29:27.341Z,38.49
2022-08-09T07:32:04.854Z,39.28
2022-08-09T07:34:32.467Z,39.83
2022-08-09T07:37:02.443Z,39.20
2022-08-09T07:39:40.159Z,40.38
2022-08-09T07:42:08.768Z,40.57
2022-08-09T07:44:52.985Z,39.92
2022-08-09T07:47:29.613Z,39.75
2022-08-09T07:50:08.642Z,40.93
2022-08-09T07:52:36.734Z,40.70
2022-08-09T07:55:09.494Z,41.28
2022-08-09T07:57:38.455Z,40.25
2022-08-09T08:00:20.578Z,41.42
2022-08-09T08:03:04.589Z,39.90
2022-08-09T08:05:54.394Z,40.36
2022-08-09T08:09:01.897Z,40.00
2022-08-09T08:12:09.868Z,40.78
2022-08-09T08:13:56.554Z,41.63
2022-08-09T08:16:31.459Z,41.43
2022-08-09T08:18:58.787Z,40.56
2022-08-09T08:21:25.431Z,41.77
2022-08-09T08:23:56.214Z,42.15
2022-08-09T08:26:26.623Z,42.02
2022-08-09T08:29:08.994Z,41.54
2022-08-09T08:32:02.524Z,41.27
2022-08-09T08:34:25.453Z,41.24
2022-08-09T08:36:52.337Z,41.82
2022-08-09T08:39:19.038Z,42.07
2022-08-09T08:41:51.872Z,42.59
2022-08-09T08:44:26.916Z,41.98
2022-08-09T08:47:02.364Z,42.34
2022-08-09T08:49:33.408Z,43.23
2022-08-09T08:52:10.220Z,43.77
2022-08-09T08:54:37.620Z,43.18
2022-08-09T08:57:05.637Z,43.19
2022-08-09T08:59:46.626Z,43.61
2022-08-09T09:02:31.274Z,43.65
2022-08-09T09:05:02.955Z,43.24
2022-08-09T09:07:42.233Z,43.49
2022-08-09T09:10:10.242Z,43.06
2022-08-09T09:12:37.140Z,43.48
2022-08-09T09:15:06.238Z,43.61
2022-08-09T09:17:49.580Z,44.04
2022-08-09T09:20:21.464Z,44.11
2022-08-09T09:23:01.982Z,44.60
2022-08-09T09:26:04.209Z,43.60
2022-08-09T09:29:02.544Z,43.73
2022-08-09T09:32:06.669Z,43.83
2022-08-09T09:34:14.455Z,43.12
2022-08-09T09:36:46.649Z,43.23
2022-08-09T09:39:19.986Z,43.03
2022-08-09T09:41:49.879Z,43.26
2022-08-09T09:44:27.665Z,43.56
2022-08-09T09:47:05.327Z,43.72
2022-08-09T09:49:49.931Z,44.14
2022-08-09T09:52:35.957Z,42.70
2022-08-09T09:55:16.799Z,43.69
2022-08-09T09:58:06.218Z,43.54
2022-08-09T10:00:55.483Z,44.22
2022-08-09T10:03:44.659Z,44.28
2022-08-09T10:06:23.394Z,43.82
2022-08-09T10:08:55.161Z,44.44
2022-08-09T10:12:07.763Z,44.34
2022-08-09T10:14:30.602Z,44.04
2022-08-09T10:17:51.152Z,45.04
2022-08-09T10:19:56.995Z,44.27
2022-08-09T10:22:50.706Z,42.98
2022-08-09T10:25:20.812Z,43.24
2022-08-09T10:27:57.893Z,42.98
2022-08-09T10:32:13.686Z,42.60
2022-08-09T10:34:09.140Z,42.69
2022-08-09T10:36:01.229Z,42.42
2022-08-09T10:38:54.881Z,41.92
2022-08-09T10:41:16.155Z,42.10
2022-08-09T10:44:01.076Z,41.85
2022-08-09T10:46:54.732Z,42.04
2022-08-09T10:49:50.079Z,42.21
2022-08-09T10:52:20.549Z,42.02
2022-08-09T10:54:48.948Z,41.82
2022-08-09T10:57:16.896Z,41.83
2022-08-09T10:59:58.165Z,41.69
2022-08-09T11:03:10.961Z,41.57
2022-08-09T11:05:29.818Z,41.13
2022-08-09T11:07:59.378Z,40.30
2022-08-09T11:10:41.287Z,40.65
2022-08-09T11:13:53.806Z,40.56
2022-08-09T11:16:33.607Z,40.35
2022-08-09T11:19:07.860Z,40.71
2022-08-09T11:22:16.767Z,41.09
2022-08-09T11:25:04.539Z,40.59
2022-08-09T11:28:02.451Z,40.36
2022-08-09T11:30:32.669Z,40.34
2022-08-09T11:33:03.508Z,40.25
2022-08-09T11:35:49.431Z,40.28
2022-08-09T11:38:28.530Z,40.89
2022-08-09T11:41:16.168Z,40.40
2022-08-09T11:43:46.670Z,39.91
2022-08-09T11:46:18.652Z,39.51
2022-08-09T11:48:59.490Z,39.47
2022-08-09T11:53:03.785Z,40.14
2022-08-09T11:54:28.927Z,40.20
2022-08-09T11:58:00.101Z,39.69
2022-08-09T12:00:27.656Z,39.62
2022-08-09T12:02:55.680Z,39.31
2022-08-09T12:05:23.113Z,39.32
2022-08-09T12:07:49.984Z,38.86
2022-08-09T12:10:39.384Z,38.72
2022-08-09T12:14:09.888Z,38.78
2022-08-09T12:16:37.667Z,38.51
2022-08-09T12:19:06.555Z,38.21
2022-08-09T12:21:39.266Z,37.95
2022-08-09T12:24:20.769Z,38.06
2022-08-09T12:29:11.660Z,37.68
2022-08-09T12:29:44.497Z,37.71
2022-08-09T12:32:25.655Z,37.67
2022-08-09T12:34:53.608Z,37.36
2022-08-09T12:37:23.672Z,37.39
2022-08-09T12:40:24.936Z,37.64
2022-08-09T12:42:51.683Z,37.86
2022-08-09T12:45:33.796Z,37.67
2022-08-09T12:48:05.602Z,38.09
2022-08-09T12:50:38.078Z,38.34
2022-08-09T12:53:18.436Z,38.44
2022-08-09T12:56:14.779Z,37.96
2022-08-09T12:58:34.018Z,37.51
2022-08-09T13:01:18.744Z,37.63
2022-08-09T13:04:08.303Z,37.57
2022-08-09T13:06:55.013Z,37.69
2022-08-09T13:09:21.546Z,37.46
2022-08-09T13:11:52.008Z,37.18
2022-08-09T13:14:43.836Z,37.18
2022-08-09T13:17:33.628Z,37.11
2022-08-09T13:20:14.296Z,37.13
2022-08-09T13:23:05.655Z,37.00
2022-08-09T13:25:54.811Z,36.92
2022-08-09T13:28:34.530Z,36.96
2022-08-09T13:32:19.954Z,36.63
2022-08-09T13:33:58.502Z,36.67
2022-08-09T13:36:40.308Z,36.63
2022-08-09T13:41:19.428Z,36.15
2022-08-09T13:42:12.695Z,36.38
2022-08-09T13:44:42.181Z,36.33
2022-08-09T13:47:29.355Z,36.37
2022-08-09T13:50:03.517Z,36.47
2022-08-09T13:52:39.071Z,36.59
2022-08-09T13:55:09.087Z,36.68
2022-08-09T13:57:44.658Z,36.80
2022-08-09T14:00:18.709Z,36.87
2022-08-09T14:03:16.687Z,36.90
2022-08-09T14:05:59.912Z,36.90
2022-08-09T14:08:20.995Z,36.92
2022-08-09T14:10:52.162Z,36.85
2022-08-09T14:14:15.076Z,36.91
2022-08-09T14:16:14.008Z,36.68
2022-08-09T14:18:45.514Z,36.75
2022-08-09T14:21:18.847Z,36.79
2022-08-09T14:23:55.027Z,37.03
2022-08-09T14:26:30.602Z,37.07
2022-08-09T14:29:03.461Z,37.09
2022-08-09T14:31:36.176Z,37.07
2022-08-09T14:34:31.852Z,36.95
2022-08-09T14:37:07.609Z,36.87
2022-08-09T14:39:47.490Z,36.85
2022-08-09T14:42:30.425Z,36.99
2022-08-09T14:46:40.066Z,36.89
2022-08-09T14:47:57.408Z,36.83
2022-08-09T14:50:30.501Z,36.89
2022-08-09T14:52:57.799Z,36.75
2022-08-09T14:55:24.441Z,36.71
2022-08-09T14:57:51.541Z,36.50
2022-08-09T15:00:18.365Z,36.44
2022-08-09T15:02:47.272Z,36.40
2022-08-09T15:05:15.230Z,36.25
2022-08-09T15:07:45.571Z,36.24
2022-08-09T15:10:25.068Z,36.16
2022-08-09T15:12:53.203Z,36.13
2022-08-09T15:15:20.240Z,36.27
2022-08-09T15:17:51.778Z,36.22
2022-08-09T15:21:54.854Z,36.17
2022-08-09T15:23:56.068Z,36.26
2022-08-09T15:25:53.790Z,36.24
2022-08-09T15:28:27.835Z,36.18
2022-08-09T15:31:09.919Z,36.22
2022-08-09T15:34:17.281Z,36.32
2022-08-09T15:36:28.769Z,36.27
2022-08-09T15:38:57.172Z,36.32
2022-08-09T15:41:31.785Z,36.29
2022-08-09T15:44:00.547Z,36.19
2022-08-09T15:46:33.788Z,36.19
2022-08-09T15:49:22.374Z,36.20
2022-08-09T15:52:03.160Z,36.13
2022-08-09T15:54:44.676Z,36.17
2022-08-09T15:57:18.712Z,36.24
2022-08-09T15:59:51.470Z,36.16
2022-08-09T16:02:19.066Z,36.11
2022-08-09T16:04:53.876Z,36.10
2022-08-09T16:07:20.505Z,36.02
2022-08-09T16:09:57.564Z,36.05
2022-08-09T16:12:31.248Z,35.81
2022-08-09T16:14:57.895Z,35.76
2022-08-09T16:17:28.892Z,35.85
2022-08-09T16:20:04.914Z,35.92
2022-08-09T16:22:42.436Z,35.99
2022-08-09T16:25:15.877Z,35.84
2022-08-09T16:27:42.592Z,35.66
2022-08-09T16:30:15.367Z,35.61
2022-08-09T16:33:10.265Z,35.53
2022-08-09T16:35:57.607Z,35.41
2022-08-09T16:38:24.748Z,35.29
2022-08-09T16:40:51.894Z,35.13
2022-08-09T16:43:18.605Z,35.08
2022-08-09T16:45:48.124Z,35.02
2022-08-09T16:48:42.505Z,34.97
2022-08-09T16:51:07.413Z,34.94
2022-08-09T16:53:35.400Z,34.88
2022-08-09T16:56:09.373Z,34.85
2022-08-09T16:58:39.918Z,34.80
2022-08-09T17:01:16.792Z,34.74
2022-08-09T17:03:46.216Z,34.65
2022-08-09T17:06:31.385Z,34.58
2022-08-09T17:09:12.194Z,34.53
2022-08-09T17:11:51.263Z,34.53
2022-08-09T17:14:26.097Z,34.44
2022-08-09T17:16:59.945Z,34.39
2022-08-09T17:19:47.704Z,34.39
2022-08-09T17:22:23.840Z,34.36
2022-08-09T17:24:55.838Z,34.32
2022-08-09T17:27:31.050Z,34.31
2022-08-09T17:29:57.767Z,34.13
2022-08-09T17:32:34.860Z,34.16
2022-08-09T17:35:11.566Z,34.19
2022-08-09T17:38:12.510Z,34.08
2022-08-09T17:40:29.495Z,33.99
2022-08-09T17:42:59.741Z,34.02
2022-08-09T17:46:03.322Z,34.04
2022-08-09T17:48:29.309Z,34.00
2022-08-09T17:50:59.202Z,33.96
2022-08-09T17:53:26.161Z,34.01
2022-08-09T17:55:57.620Z,33.93
2022-08-09T17:58:27.708Z,33.85
2022-08-09T18:00:56.661Z,33.81
2022-08-09T18:03:25.088Z,33.81
2022-08-09T18:05:52.936Z,33.81
2022-08-09T18:08:22.014Z,33.75
2022-08-09T18:11:00.726Z,33.76
2022-08-09T18:13:39.784Z,33.76
2022-08-09T18:16:09.759Z,33.72
2022-08-09T18:18:43.347Z,33.65
2022-08-09T18:21:22.856Z,33.62
2022-08-09T18:24:09.482Z,33.59
2022-08-09T18:26:38.442Z,33.59
2022-08-09T18:30:39.437Z,33.55
2022-08-09T18:32:00.404Z,33.48
2022-08-09T18:34:31.683Z,33.42
2022-08-09T18:36:58.501Z,33.45
2022-08-09T18:39:32.140Z,33.42
2022-08-09T18:42:01.054Z,33.38
2022-08-09T18:44:27.838Z,33.27
2022-08-09T18:47:04.965Z,33.07
2022-08-09T18:49:43.062Z,33.03
2022-08-09T18:52:12.885Z,32.94
2022-08-09T18:54:42.112Z,32.41
2022-08-09T18:57:19.894Z,32.32
2022-08-09T18:59:54.357Z,32.38
2022-08-09T19:02:23.931Z,31.96
2022-08-09T19:05:14.644Z,31.96
2022-08-09T19:08:03.650Z,31.88
2022-08-09T19:10:37.332Z,31.69
2022-08-09T19:13:20.526Z,31.75
2022-08-09T19:15:56.321Z,31.53
2022-08-09T19:18:33.886Z,31.49
2022-08-09T19:21:10.630Z,31.56
2022-08-09T19:24:32.594Z,31.32
2022-08-09T19:26:31.337Z,31.18
2022-08-09T19:29:01.330Z,31.11
2022-08-09T19:31:30.228Z,31.23
2022-08-09T19:33:58.065Z,31.29
2022-08-09T19:36:31.017Z,31.27
2022-08-09T19:39:03.401Z,31.19
2022-08-09T19:41:33.097Z,31.17
2022-08-09T19:44:03.197Z,31.23
2022-08-09T19:46:34.169Z,31.29
2022-08-09T19:50:09.151Z,31.01
2022-08-09T19:51:55.919Z,31.09
2022-08-09T19:54:26.934Z,31.00
2022-08-09T19:56:54.283Z,31.05
2022-08-09T19:59:58.308Z,31.06
2022-08-09T20:02:17.353Z,31.01
2022-08-09T20:04:58.976Z,30.95
2022-08-09T20:07:26.235Z,30.89
2022-08-09T20:10:17.701Z,30.81
2022-08-09T20:12:49.047Z,30.64
2022-08-09T20:16:35.407Z,30.58
2022-08-09T20:18:05.284Z,30.62
2022-08-09T20:20:35.395Z,30.52
2022-08-09T20:23:04.348Z,30.56
2022-08-09T20:25:51.780Z,30.52
2022-08-09T20:28:24.412Z,30.50
2022-08-09T20:30:55.200Z,30.54
2022-08-09T20:33:21.920Z,30.50
2022-08-09T20:35:51.593Z,30.47
2022-08-09T20:38:29.981Z,30.34
2022-08-09T20:41:00.830Z,30.35
2022-08-09T20:43:27.708Z,30.33
2022-08-09T20:45:59.462Z,30.26
2022-08-09T20:48:30.608Z,30.24
2022-08-09T20:50:58.703Z,30.23
2022-08-09T20:53:37.447Z,30.28
2022-08-09T20:56:06.530Z,30.30
2022-08-09T20:58:35.512Z,30.20
2022-08-09T21:01:33.226Z,30.09
2022-08-09T21:05:48.407Z,30.14
2022-08-09T21:06:41.503Z,30.17
2022-08-09T21:09:11.671Z,30.11
2022-08-09T21:14:26.866Z,30.14
2022-08-09T21:16:57.589Z,30.11
2022-08-09T21:20:18.681Z,29.97
2022-08-09T21:22:36.306Z,29.88
2022-08-09T21:25:17.750Z,29.91
2022-08-09T21:27:51.537Z,29.88
2022-08-09T21:30:19.400Z,29.71
2022-08-09T21:32:48.990Z,29.80
2022-08-09T21:35:16.176Z,29.78
2022-08-09T21:37:56.891Z,29.77
2022-08-09T21:40:30.590Z,29.77
2022-08-09T21:42:59.749Z,29.80
2022-08-09T21:45:27.650Z,29.64
2022-08-09T21:47:54.256Z,29.63
2022-08-09T21:50:33.912Z,29.64
2022-08-09T21:53:19.811Z,29.60
2022-08-09T21:55:55.145Z,29.59
2022-08-09T21:58:31.196Z,29.57
2022-08-09T22:00:57.999Z,29.50
2022-08-09T22:03:25.585Z,29.44
2022-08-09T22:05:52.964Z,29.48
2022-08-09T22:08:24.628Z,29.34
2022-08-09T22:11:00.168Z,29.31
2022-08-09T22:13:38.240Z,29.20
2022-08-09T22:16:07.278Z,29.28
2022-08-09T22:18:35.152Z,29.07
2022-08-09T22:21:09.931Z,29.11
2022-08-09T22:23:59.483Z,29.04
2022-08-09T22:26:35.143Z,29.14
2022-08-09T22:29:07.029Z,29.14
2022-08-09T22:31:37.717Z,29.02
2022-08-09T22:34:14.507Z,29.03
2022-08-09T22:36:45.524Z,29.01
2022-08-09T22:39:47.318Z,28.93
2022-08-09T22:42:00.905Z,28.84
2022-08-09T22:44:29.896Z,28.86
2022-08-09T22:48:18.806Z,28.87
2022-08-09T22:49:46.726Z,28.80
2022-08-09T22:52:13.421Z,28.78
2022-08-09T22:54:42.393Z,28.71
2022-08-09T22:57:13.578Z,28.72
2022-08-09T22:59:55.905Z,28.69
2022-08-09T23:02:25.205Z,28.65
2022-08-09T23:04:53.769Z,28.58
2022-08-09T23:08:23.283Z,28.51
2022-08-09T23:10:27.606Z,28.41
2022-08-09T23:12:54.181Z,28.39
2022-08-09T23:15:20.800Z,28.36
2022-08-09T23:17:47.365Z,28.34
2022-08-09T23:20:14.142Z,28.31
2022-08-09T23:22:40.725Z,28.25
2022-08-09T23:25:07.587Z,28.24
2022-08-09T23:27:34.381Z,28.21
2022-08-09T23:30:01.143Z,28.20
2022-08-09T23:32:27.777Z,28.14
2022-08-09T23:34:54.399Z,28.17
2022-08-09T23:37:22.657Z,28.13
2022-08-09T23:39:57.927Z,28.03
2022-08-09T23:42:26.368Z,28.03
2022-08-09T23:44:53.131Z,27.95
2022-08-09T23:47:19.718Z,27.92
2022-08-09T23:49:46.304Z,27.90
2022-08-09T23:52:12.915Z,27.85
2022-08-09T23:54:42.795Z,27.79
2022-08-09T23:57:12.208Z,27.78
